createdAt,value
2022-10-29T00:00:41.266Z,18.42
2022-10-29T00:03:08.611Z,17.90
2022-10-29T00:05:35.637Z,19.73
2022-10-29T00:08:03.096Z,11.55
2022-10-29T00:10:30.155Z,13.65
2022-10-29T00:13:00.952Z,17.88
2022-10-29T00:15:27.794Z,18.17
2022-10-29T00:17:54.719Z,13.00
2022-10-29T00:20:21.876Z,18.13
2022-10-29T00:22:48.451Z,15.57
2022-10-29T00:25:15.269Z,14.63
2022-10-29T00:27:41.900Z,17.73
2022-10-29T00:30:09.260Z,16.58
2022-10-29T00:32:35.903Z,17.50
2022-10-29T00:35:02.527Z,10.55
2022-10-29T00:37:29.105Z,7.75
2022-10-29T00:39:55.747Z,14.20
2022-10-29T00:42:22.325Z,18.17
2022-10-29T00:44:48.947Z,15.05
2022-10-29T00:47:27.615Z,16.95
2022-10-29T00:50:06.567Z,16.05
2022-10-29T00:52:37.218Z,16.98
2022-10-29T00:55:06.907Z,16.88
2022-10-29T00:57:40.068Z,19.13
2022-10-29T01:00:07.407Z,14.38
2022-10-29T01:02:35.490Z,17.30
2022-10-29T01:05:04.467Z,19.98
2022-10-29T01:07:31.078Z,14.93
2022-10-29T01:09:57.959Z,15.52
2022-10-29T01:13:10.787Z,18.73
2022-10-29T01:15:52.665Z,15.52
2022-10-29T01:18:30.876Z,15.90
2022-10-29T01:21:25.283Z,18.02
2022-10-29T01:24:18.811Z,14.02
2022-10-29T01:27:21.116Z,15.27
2022-10-29T01:30:01.251Z,17.50
2022-10-29T01:32:53.627Z,15.23
2022-10-29T01:35:46.317Z,13.75
2022-10-29T01:38:38.771Z,14.23
2022-10-29T01:41:23.124Z,19.08
2022-10-29T01:44:11.639Z,13.40
2022-10-29T01:46:46.462Z,12.48
2022-10-29T01:49:18.704Z,14.20
2022-10-29T01:51:47.180Z,21.75
2022-10-29T01:54:13.959Z,19.83
2022-10-29T01:56:40.569Z,15.70
2022-10-29T01:59:18.229Z,14.65
2022-10-29T02:02:23.693Z,15.82
2022-10-29T02:05:26.864Z,17.25
2022-10-29T02:07:56.025Z,20.05
2022-10-29T02:10:28.458Z,18.58
2022-10-29T02:12:57.120Z,15.73
2022-10-29T02:15:33.789Z,17.55
2022-10-29T02:18:02.658Z,16.48
2022-10-29T02:20:30.163Z,13.10
2022-10-29T02:22:57.079Z,17.67
2022-10-29T02:25:24.181Z,15.98
2022-10-29T02:27:50.847Z,16.17
2022-10-29T02:30:17.606Z,14.70
2022-10-29T02:32:44.546Z,19.90
2022-10-29T02:35:11.493Z,19.45
2022-10-29T02:37:38.240Z,15.75
2022-10-29T02:40:05.260Z,16.85
2022-10-29T02:42:31.854Z,16.27
2022-10-29T02:44:58.611Z,18.92
2022-10-29T02:47:25.301Z,15.63
2022-10-29T02:49:51.960Z,21.27
2022-10-29T02:52:18.610Z,15.60
2022-10-29T02:54:45.278Z,14.20
2022-10-29T02:57:11.930Z,18.63
2022-10-29T02:59:38.512Z,21.60
2022-10-29T03:02:05.506Z,14.45
2022-10-29T03:04:32.171Z,20.88
2022-10-29T03:06:58.953Z,19.70
2022-10-29T03:09:25.577Z,14.57
2022-10-29T03:11:52.195Z,25.30
2022-10-29T03:14:18.849Z,17.15
2022-10-29T03:16:45.419Z,21.20
2022-10-29T03:19:12.099Z,18.88
2022-10-29T03:21:38.768Z,15.82
2022-10-29T03:24:05.733Z,16.45
2022-10-29T03:26:32.330Z,13.52
2022-10-29T03:28:59.010Z,25.27
2022-10-29T03:31:25.624Z,17.92
2022-10-29T03:33:52.254Z,20.10
2022-10-29T03:36:19.024Z,15.60
2022-10-29T03:38:45.699Z,17.45
2022-10-29T04:23:36.687Z,14.25
2022-10-29T04:29:50.865Z,21.55
2022-10-29T04:32:17.555Z,22.48
2022-10-29T04:34:44.283Z,22.35
2022-10-29T04:37:10.882Z,24.13
2022-10-29T04:39:37.488Z,17.33
2022-10-29T04:42:04.140Z,19.63
2022-10-29T04:44:30.746Z,27.73
2022-10-29T04:46:57.412Z,21.98
2022-10-29T04:49:24.111Z,23.42
2022-10-29T04:51:50.773Z,19.45
2022-10-29T04:54:17.449Z,21.85
2022-10-29T04:56:44.181Z,20.15
2022-10-29T04:59:10.752Z,26.15
2022-10-29T05:01:37.419Z,17.02
2022-10-29T05:04:04.219Z,20.58
2022-10-29T05:06:30.817Z,21.70
2022-10-29T05:08:57.460Z,20.92
2022-10-29T05:11:24.191Z,16.88
2022-10-29T05:13:50.819Z,20.55
2022-10-29T05:16:17.648Z,20.17
2022-10-29T05:18:44.240Z,21.55
2022-10-29T05:21:10.944Z,22.30
2022-10-29T05:23:37.717Z,20.73
2022-10-29T05:26:04.465Z,22.45
2022-10-29T05:28:31.130Z,22.75
2022-10-29T05:31:02.451Z,18.92
2022-10-29T05:33:29.216Z,24.80
2022-10-29T05:35:55.822Z,24.45
2022-10-29T05:38:22.415Z,17.42
2022-10-29T05:40:49.155Z,21.67
2022-10-29T05:43:17.357Z,18.58
2022-10-29T05:45:44.548Z,24.75
2022-10-29T05:50:44.115Z,26.95
2022-10-29T05:53:12.983Z,18.30
2022-10-29T05:55:40.521Z,23.17
2022-10-29T05:58:11.143Z,23.55
2022-10-29T06:00:39.999Z,21.33
2022-10-29T06:03:14.195Z,24.25
2022-10-29T06:05:41.234Z,24.77
2022-10-29T06:08:08.361Z,21.52
2022-10-29T06:10:35.145Z,22.88
2022-10-29T06:13:01.912Z,18.88
2022-10-29T06:15:28.610Z,24.77
2022-10-29T06:17:55.384Z,22.85
2022-10-29T06:20:22.348Z,30.33
2022-10-29T06:22:57.987Z,22.50
2022-10-29T06:25:26.530Z,20.60
2022-10-29T06:28:07.335Z,21.63
2022-10-29T06:30:35.947Z,21.73
2022-10-29T06:33:04.634Z,22.10
2022-10-29T06:35:31.744Z,25.67
2022-10-29T06:37:59.111Z,25.85
2022-10-29T06:40:26.533Z,24.73
2022-10-29T06:43:07.099Z,20.40
2022-10-29T06:45:34.693Z,19.05
2022-10-29T06:48:01.999Z,19.17
2022-10-29T06:50:28.801Z,24.45
2022-10-29T06:52:57.894Z,21.13
2022-10-29T06:55:25.526Z,21.23
2022-10-29T06:58:01.972Z,25.42
2022-10-29T07:00:30.370Z,16.83
2022-10-29T07:02:57.592Z,16.63
2022-10-29T07:05:25.096Z,22.95
2022-10-29T07:07:56.716Z,21.88
2022-10-29T07:10:24.575Z,19.45
2022-10-29T07:12:51.532Z,18.60
2022-10-29T07:15:18.242Z,19.27
2022-10-29T07:17:58.737Z,20.65
2022-10-29T07:20:26.974Z,26.92
2022-10-29T07:22:53.721Z,14.18
2022-10-29T07:25:20.749Z,19.77
2022-10-29T07:27:47.421Z,20.42
2022-10-29T07:30:14.256Z,16.77
2022-10-29T07:32:40.868Z,21.98
2022-10-29T07:35:08.099Z,21.98
2022-10-29T07:37:34.868Z,19.92
2022-10-29T07:40:01.553Z,16.98
2022-10-29T07:42:28.294Z,18.65
2022-10-29T07:44:54.932Z,19.38
2022-10-29T07:47:21.539Z,16.67
2022-10-29T07:49:48.209Z,16.20
2022-10-29T07:52:14.953Z,19.58
2022-10-29T07:54:41.686Z,20.08
2022-10-29T07:57:08.274Z,28.25
2022-10-29T07:59:34.886Z,22.90
2022-10-29T08:02:01.674Z,23.83
2022-10-29T08:04:28.390Z,20.70
2022-10-29T08:06:55.028Z,22.02
2022-10-29T08:09:21.709Z,19.88
2022-10-29T08:11:48.436Z,19.58
2022-10-29T08:14:17.804Z,18.67
2022-10-29T08:16:46.859Z,25.63
2022-10-29T08:19:13.651Z,20.08
2022-10-29T08:21:40.343Z,20.65
2022-10-29T08:24:07.264Z,29.92
2022-10-29T08:26:33.981Z,18.85
2022-10-29T08:29:00.575Z,16.35
2022-10-29T08:31:27.187Z,17.30
2022-10-29T08:33:53.851Z,21.67
2022-10-29T08:36:20.523Z,20.38
2022-10-29T08:38:47.802Z,30.35
2022-10-29T08:41:32.691Z,17.52
2022-10-29T08:44:33.600Z,26.05
2022-10-29T08:47:12.835Z,20.05
2022-10-29T08:50:27.275Z,21.58
2022-10-29T08:55:45.810Z,22.55
2022-10-29T08:58:26.950Z,20.95
2022-10-29T09:00:57.846Z,23.50
2022-10-29T09:03:29.868Z,23.90
2022-10-29T09:06:10.678Z,28.23
2022-10-29T09:09:13.734Z,23.63
2022-10-29T09:11:50.297Z,19.40
2022-10-29T09:14:39.431Z,22.20
2022-10-29T09:17:25.899Z,18.38
2022-10-29T09:20:19.791Z,19.90
2022-10-29T09:22:58.909Z,19.05
2022-10-29T09:25:47.665Z,19.00
2022-10-29T09:28:32.770Z,19.33
2022-10-29T09:31:17.593Z,20.02
2022-10-29T09:33:48.003Z,20.60
2022-10-29T09:36:18.380Z,24.50
2022-10-29T09:41:30.990Z,25.15
2022-10-29T09:44:18.102Z,22.33
2022-10-29T09:47:12.796Z,25.05
2022-10-29T09:49:53.238Z,19.63
2022-10-29T09:52:28.373Z,23.98
2022-10-29T09:54:55.598Z,26.35
2022-10-29T09:57:26.507Z,20.27
2022-10-29T10:00:02.127Z,23.83
2022-10-29T10:02:43.790Z,23.05
2022-10-29T10:05:15.322Z,24.45
2022-10-29T10:07:42.671Z,21.70
2022-10-29T10:10:23.322Z,23.55
2022-10-29T10:12:50.925Z,16.10
2022-10-29T10:15:30.204Z,21.35
2022-10-29T10:17:58.491Z,19.70
2022-10-29T10:20:41.175Z,21.13
2022-10-29T10:23:27.208Z,20.98
2022-10-29T10:26:00.302Z,22.35
2022-10-29T10:28:34.390Z,18.30
2022-10-29T10:31:03.848Z,19.55
2022-10-29T10:33:32.612Z,24.20
2022-10-29T10:36:06.274Z,22.27
2022-10-29T10:38:42.041Z,23.73
2022-10-29T10:41:11.176Z,20.25
2022-10-29T10:43:41.482Z,18.70
2022-10-29T10:46:22.747Z,17.80
2022-10-29T10:49:02.394Z,16.17
2022-10-29T10:51:35.018Z,21.88
2022-10-29T10:54:07.229Z,25.63
2022-10-29T10:56:51.519Z,20.15
2022-10-29T10:59:19.204Z,21.95
2022-10-29T11:01:50.674Z,17.60
2022-10-29T11:04:39.002Z,21.67
2022-10-29T11:07:09.767Z,19.45
2022-10-29T11:09:45.210Z,21.80
2022-10-29T11:12:33.080Z,24.02
2022-10-29T11:15:10.797Z,18.55
2022-10-29T11:17:52.904Z,18.35
2022-10-29T11:20:35.577Z,22.17
2022-10-29T11:23:29.298Z,26.60
2022-10-29T11:26:08.305Z,17.20
2022-10-29T11:28:40.822Z,20.50
2022-10-29T11:31:36.352Z,21.15
2022-10-29T11:34:32.271Z,20.60
2022-10-29T11:37:13.053Z,19.98
2022-10-29T11:39:49.697Z,23.77
2022-10-29T11:42:16.340Z,20.48
2022-10-29T11:44:43.030Z,21.40
2022-10-29T11:47:26.628Z,16.88
2022-10-29T11:50:05.274Z,16.55
2022-10-29T11:52:54.084Z,14.02
2022-10-29T11:55:40.675Z,17.80
2022-10-29T11:58:14.985Z,15.77
2022-10-29T12:01:15.013Z,20.45
2022-10-29T12:03:50.571Z,15.98
2022-10-29T12:06:48.279Z,23.05
2022-10-29T12:09:37.806Z,13.55
2022-10-29T12:12:23.750Z,19.65
2022-10-29T12:15:21.233Z,12.70
2022-10-29T12:18:22.758Z,18.00
2022-10-29T12:21:02.156Z,15.73
2022-10-29T12:24:07.192Z,15.73
2022-10-29T12:26:41.452Z,17.88
2022-10-29T12:29:22.451Z,15.10
2022-10-29T12:32:10.793Z,20.63
2022-10-29T12:34:45.794Z,15.32
2022-10-29T12:37:37.481Z,22.02
2022-10-29T12:40:26.495Z,23.42
2022-10-29T12:42:54.444Z,22.08
2022-10-29T12:45:53.058Z,26.85
2022-10-29T12:48:48.040Z,19.08
2022-10-29T12:51:28.701Z,15.90
2022-10-29T12:54:14.100Z,20.95
2022-10-29T12:56:43.809Z,17.60
2022-10-29T12:59:23.846Z,20.58
2022-10-29T13:05:06.654Z,15.20
2022-10-29T13:07:33.897Z,13.43
2022-10-29T13:10:22.637Z,17.58
2022-10-29T13:13:00.037Z,17.02
2022-10-29T13:15:41.475Z,16.55
2022-10-29T13:18:56.472Z,21.15
2022-10-29T13:22:17.324Z,17.20
2022-10-29T13:24:44.062Z,17.85
2022-10-29T13:27:16.946Z,19.63
2022-10-29T13:29:48.367Z,17.65
2022-10-29T13:32:34.531Z,14.05
2022-10-29T13:35:03.448Z,14.88
2022-10-29T13:37:47.455Z,19.20
2022-10-29T13:40:23.110Z,17.42
2022-10-29T13:43:02.411Z,17.08
2022-10-29T13:45:30.308Z,21.95
2022-10-29T13:48:05.701Z,18.08
2022-10-29T13:50:37.491Z,15.95
2022-10-29T13:53:13.132Z,17.05
2022-10-29T13:55:44.464Z,15.75
2022-10-29T13:58:31.472Z,11.68
2022-10-29T14:01:01.221Z,14.77
2022-10-29T14:03:41.482Z,11.45
2022-10-29T14:06:16.264Z,13.65
2022-10-29T14:09:12.326Z,17.17
2022-10-29T14:11:43.404Z,12.10
2022-10-29T14:14:30.144Z,14.30
2022-10-29T14:17:18.137Z,11.00
2022-10-29T14:19:50.200Z,14.95
2022-10-29T14:22:33.294Z,17.70
2022-10-29T14:25:02.075Z,19.77
2022-10-29T14:27:29.744Z,16.55
2022-10-29T14:30:13.511Z,15.23
2022-10-29T14:32:41.378Z,16.23
2022-10-29T14:35:08.419Z,10.27
2022-10-29T14:37:42.956Z,17.15
2022-10-29T14:40:20.540Z,17.10
2022-10-29T14:45:45.114Z,14.82
2022-10-29T14:48:16.255Z,13.80
2022-10-29T14:50:51.391Z,24.25
2022-10-29T14:53:34.033Z,16.98
2022-10-29T14:56:09.143Z,15.32
2022-10-29T14:58:37.815Z,18.17
2022-10-29T15:01:09.967Z,15.02
2022-10-29T15:03:37.357Z,18.55
2022-10-29T15:06:27.561Z,18.02
2022-10-29T15:09:03.622Z,13.02
2022-10-29T15:11:39.283Z,11.77
2022-10-29T15:14:30.424Z,10.10
2022-10-29T15:16:57.840Z,19.13
2022-10-29T15:19:24.684Z,10.63
2022-10-29T15:21:51.398Z,13.98
2022-10-29T15:24:23.273Z,13.48
2022-10-29T15:26:58.815Z,11.32
2022-10-29T15:29:35.436Z,13.48
2022-10-29T15:32:04.212Z,13.40
2022-10-29T15:34:37.445Z,17.50
2022-10-29T15:37:19.190Z,15.60
2022-10-29T15:39:59.292Z,16.90
2022-10-29T15:42:32.235Z,12.82
2022-10-29T15:45:08.135Z,12.55
2022-10-29T15:47:36.763Z,14.73
2022-10-29T15:50:04.771Z,14.88
2022-10-29T15:52:39.235Z,20.50
2022-10-29T15:55:29.441Z,31.52
2022-10-29T16:00:28.421Z,25.85
2022-10-29T16:02:59.842Z,24.67
2022-10-29T16:05:26.683Z,23.52
2022-10-29T16:07:53.479Z,22.88
2022-10-29T16:10:21.390Z,22.52
2022-10-29T16:12:49.736Z,21.20
2022-10-29T16:15:18.946Z,23.92
2022-10-29T16:17:46.915Z,18.90
2022-10-29T16:20:19.289Z,17.55
2022-10-29T16:22:47.733Z,19.83
2022-10-29T16:25:28.198Z,17.10
2022-10-29T16:27:55.639Z,23.65
2022-10-29T16:30:23.524Z,21.25
2022-10-29T16:32:50.943Z,24.30
2022-10-29T16:35:23.781Z,27.70
2022-10-29T16:37:51.454Z,25.80
2022-10-29T16:40:19.792Z,26.95
2022-10-29T16:42:47.364Z,28.65
2022-10-29T16:45:32.238Z,20.75
2022-10-29T16:47:59.359Z,25.10
2022-10-29T16:50:31.184Z,18.60
2022-10-29T16:52:58.639Z,23.80
2022-10-29T16:55:26.852Z,23.70
2022-10-29T16:57:53.662Z,17.90
2022-10-29T17:00:20.894Z,25.80
2022-10-29T17:02:47.605Z,22.40
2022-10-29T17:05:15.299Z,23.00
2022-10-29T17:07:41.910Z,27.58
2022-10-29T17:10:08.965Z,32.60
2022-10-29T17:12:36.589Z,42.33
2022-10-29T17:15:03.356Z,32.42
2022-10-29T17:17:30.912Z,33.45
2022-10-29T17:19:58.033Z,35.13
2022-10-29T17:22:24.776Z,35.83
2022-10-29T17:24:51.356Z,33.15
2022-10-29T17:27:17.988Z,29.17
2022-10-29T17:29:44.590Z,23.90
2022-10-29T17:32:11.172Z,23.13
2022-10-29T17:34:37.812Z,23.60
2022-10-29T17:37:04.540Z,22.55
2022-10-29T17:39:31.173Z,24.95
2022-10-29T17:41:58.020Z,22.95
2022-10-29T17:44:28.105Z,20.00
2022-10-29T17:46:54.979Z,21.60
2022-10-29T17:49:22.183Z,26.38
2022-10-29T17:51:48.819Z,19.73
2022-10-29T17:54:16.268Z,19.98
2022-10-29T17:56:42.964Z,15.13
2022-10-29T17:59:09.947Z,25.90
2022-10-29T18:01:36.775Z,20.10
2022-10-29T18:04:05.132Z,19.48
2022-10-29T18:06:32.456Z,27.60
2022-10-29T18:09:00.475Z,25.90
2022-10-29T18:11:27.535Z,22.70
2022-10-29T18:13:55.695Z,20.92
2022-10-29T18:16:25.824Z,22.48
2022-10-29T18:19:02.276Z,22.83
2022-10-29T18:21:30.617Z,19.00
2022-10-29T18:23:58.357Z,24.33
2022-10-29T18:26:28.467Z,23.13
2022-10-29T18:28:55.852Z,19.98
2022-10-29T18:31:25.338Z,19.63
2022-10-29T18:33:51.975Z,23.75
2022-10-29T18:36:18.703Z,20.30
2022-10-29T18:38:51.231Z,24.50
2022-10-29T18:41:18.220Z,21.38
2022-10-29T18:43:45.083Z,24.38
2022-10-29T18:46:12.095Z,20.80
2022-10-29T18:48:40.815Z,27.52
2022-10-29T18:51:16.296Z,28.25
2022-10-29T18:53:43.040Z,24.27
2022-10-29T18:56:12.019Z,27.75
2022-10-29T18:58:39.048Z,21.33
2022-10-29T19:01:11.354Z,27.23
2022-10-29T19:03:38.640Z,23.42
2022-10-29T19:06:11.818Z,31.08
2022-10-29T19:08:40.633Z,25.90
2022-10-29T19:11:23.041Z,22.48
2022-10-29T19:13:51.398Z,27.58
2022-10-29T19:16:18.127Z,32.35
2022-10-29T19:18:44.734Z,34.72
2022-10-29T19:21:17.036Z,26.23
2022-10-29T19:23:43.855Z,27.67
2022-10-29T19:26:16.575Z,27.13
2022-10-29T19:28:44.971Z,34.72
2022-10-29T19:31:14.481Z,30.75
2022-10-29T19:33:41.562Z,34.45
2022-10-29T19:36:09.300Z,32.83
2022-10-29T19:38:36.212Z,42.15
2022-10-29T19:41:02.855Z,36.33
2022-10-29T19:43:30.005Z,42.60
2022-10-29T19:45:57.120Z,37.75
2022-10-29T19:48:24.561Z,39.85
2022-10-29T19:50:53.867Z,41.88
2022-10-29T19:53:21.153Z,39.27
2022-10-29T19:55:50.396Z,34.10
2022-10-29T19:58:18.049Z,30.63
2022-10-29T20:00:44.787Z,39.60
2022-10-29T20:03:12.179Z,33.08
2022-10-29T20:05:39.962Z,34.53
2022-10-29T20:08:10.111Z,30.83
2022-10-29T20:10:39.929Z,34.72
2022-10-29T20:13:06.602Z,29.75
2022-10-29T20:15:33.293Z,35.22
2022-10-29T20:18:00.084Z,28.48
2022-10-29T20:20:27.006Z,36.72
2022-10-29T20:22:53.926Z,31.55
2022-10-29T20:25:24.000Z,50.25
2022-10-29T20:27:51.001Z,45.45
2022-10-29T20:30:17.849Z,36.00
2022-10-29T20:32:44.467Z,43.83
2022-10-29T20:35:11.119Z,36.88
2022-10-29T20:37:37.702Z,42.28
2022-10-29T20:40:05.256Z,43.05
2022-10-29T20:42:31.874Z,42.28
2022-10-29T20:44:58.435Z,52.85
2022-10-29T20:47:25.308Z,43.78
2022-10-29T20:49:51.888Z,47.45
2022-10-29T20:52:18.492Z,41.47
2022-10-29T20:54:45.109Z,41.33
2022-10-29T20:57:11.757Z,38.58
2022-10-29T20:59:38.361Z,44.65
2022-10-29T21:02:05.091Z,43.75
2022-10-29T21:04:31.759Z,44.20
2022-10-29T21:06:58.416Z,41.33
2022-10-29T21:09:24.998Z,41.25
2022-10-29T21:11:51.657Z,42.22
2022-10-29T21:14:18.263Z,36.92
2022-10-29T21:16:44.904Z,39.72
2022-10-29T21:19:11.581Z,39.63
2022-10-29T21:21:39.942Z,48.97
2022-10-29T21:24:06.852Z,36.10
2022-10-29T21:26:33.438Z,33.25
2022-10-29T21:29:00.056Z,41.22
2022-10-29T21:31:26.803Z,36.03
2022-10-29T21:33:54.338Z,32.90
2022-10-29T21:36:21.881Z,32.90
2022-10-29T21:38:48.732Z,38.95
2022-10-29T21:41:15.896Z,33.63
2022-10-29T21:46:33.036Z,31.63
2022-10-29T21:48:59.741Z,33.53
2022-10-29T21:51:26.310Z,31.80
2022-10-29T21:53:52.882Z,35.83
2022-10-29T21:56:19.751Z,36.90
2022-10-29T21:58:46.371Z,35.90
2022-10-29T22:01:15.217Z,36.20
2022-10-29T22:03:43.673Z,31.90
2022-10-29T22:06:13.338Z,33.60
2022-10-29T22:08:40.924Z,38.03
2022-10-29T22:11:07.755Z,35.35
2022-10-29T22:13:35.236Z,38.15
2022-10-29T22:16:03.156Z,33.10
2022-10-29T22:18:30.426Z,35.72
2022-10-29T22:21:11.354Z,33.50
2022-10-29T22:23:43.029Z,37.78
2022-10-29T22:26:09.764Z,33.03
2022-10-29T22:28:36.492Z,33.13
2022-10-29T22:31:04.490Z,33.90
2022-10-29T22:33:32.015Z,35.95
2022-10-29T22:36:07.151Z,33.92
2022-10-29T22:38:33.843Z,39.67
2022-10-29T22:41:18.737Z,31.45
2022-10-29T22:43:45.698Z,35.13
2022-10-29T22:46:14.550Z,36.90
2022-10-29T22:48:41.444Z,36.35
2022-10-29T22:51:13.771Z,32.17
2022-10-29T22:53:40.739Z,32.95
2022-10-29T22:56:07.978Z,33.75
2022-10-29T22:58:34.773Z,39.08
2022-10-29T23:01:13.790Z,40.53
2022-10-29T23:03:41.694Z,37.92
2022-10-29T23:06:11.105Z,42.65
2022-10-29T23:08:37.839Z,35.77
2022-10-29T23:11:11.749Z,34.80
2022-10-29T23:13:38.356Z,32.45
2022-10-29T23:16:05.479Z,38.78
2022-10-29T23:18:32.130Z,33.10
2022-10-29T23:21:04.004Z,40.22
2022-10-29T23:23:31.635Z,36.25
2022-10-29T23:26:01.829Z,39.30
2022-10-29T23:30:57.593Z,35.75
2022-10-29T23:33:24.686Z,36.45
2022-10-29T23:35:51.431Z,36.45
2022-10-29T23:38:18.319Z,34.55
2022-10-29T23:40:46.911Z,38.45
2022-10-29T23:43:14.520Z,32.72
2022-10-29T23:45:41.753Z,30.35
2022-10-29T23:48:09.763Z,35.25
2022-10-29T23:50:37.809Z,34.03
2022-10-29T23:53:05.049Z,34.42
2022-10-29T23:55:31.757Z,35.50
2022-10-29T23:57:58.354Z,35.17
